Time;durP1;ratioP1;P1;durP2;ratioP2;P2;SDS_P1;SDS_P2;PMS_P1;PMS_P2;Temp;Humidity;BMP_temperature;BMP_pressure;BME280_temperature;BME280_humidity;BME280_pressure;Samples;Min_cycle;Max_cycle;Signal;HPM_P1;HPM_P2
2023/01/15 00:01:36;;;;;;;2.03;1.10;;;7.70;99.90;;;;;;4953587;28;20053;-86
2023/01/15 00:04:04;;;;;;;2.45;1.88;;;7.70;99.90;;;;;;4953804;28;20060;-86
2023/01/15 00:06:31;;;;;;;1.30;0.80;;;7.70;99.90;;;;;;4970092;28;20084;-86
2023/01/15 00:08:57;;;;;;;3.65;1.15;;;7.70;99.90;;;;;;4969978;28;20062;-86
2023/01/15 00:11:23;;;;;;;0.73;0.70;;;7.70;99.90;;;;;;4969740;28;20035;-86
2023/01/15 00:13:49;;;;;;;1.98;0.90;;;7.70;99.90;;;;;;4969324;28;20045;-86
2023/01/15 00:16:18;;;;;;;1.80;1.33;;;7.80;99.90;;;;;;4953704;28;20131;-86
2023/01/15 00:18:50;;;;;;;2.55;1.67;;;7.70;99.90;;;;;;4969655;28;20062;-86
2023/01/15 00:21:16;;;;;;;;;;;7.70;99.90;;;;;;5070933;28;20041;-86
2023/01/15 00:29:14;;;;;;;3.38;2.13;;;7.70;99.90;;;;;;4972429;28;20041;-86
2023/01/15 00:31:42;;;;;;;2.10;1.00;;;7.70;99.90;;;;;;4956824;28;20759;-86
2023/01/15 00:34:08;;;;;;;2.33;1.30;;;7.70;99.90;;;;;;4957072;28;20628;-86
2023/01/15 00:36:33;;;;;;;1.38;1.00;;;7.70;99.90;;;;;;4973815;28;20031;-86
2023/01/15 00:39:03;;;;;;;2.75;2.17;;;7.70;99.90;;;;;;4973180;28;20027;-86
2023/01/15 00:41:29;;;;;;;2.58;1.48;;;7.70;99.90;;;;;;4956993;28;20061;-86
2023/01/15 00:43:55;;;;;;;1.88;1.45;;;7.70;99.90;;;;;;4956958;28;20066;-86
2023/01/15 00:46:21;;;;;;;2.47;1.30;;;7.70;99.90;;;;;;4955563;28;20635;-86
2023/01/15 00:48:47;;;;;;;1.67;1.20;;;7.70;99.90;;;;;;4956511;28;20105;-86
2023/01/15 00:51:13;;;;;;;2.45;1.55;;;7.70;99.90;;;;;;4956186;28;20046;-86
2023/01/15 00:53:38;;;;;;;1.80;1.30;;;7.70;99.90;;;;;;4955907;28;20121;-86
2023/01/15 00:56:04;;;;;;;2.22;1.38;;;7.70;99.90;;;;;;4971566;28;20035;-86
2023/01/15 00:58:30;;;;;;;3.22;1.20;;;7.70;99.90;;;;;;4956134;28;20121;-86
2023/01/15 01:00:57;;;;;;;1.40;1.00;;;7.70;99.90;;;;;;4972298;28;20023;-86
2023/01/15 01:03:23;;;;;;;2.35;1.17;;;7.70;99.90;;;;;;4955830;28;20160;-86
2023/01/15 01:05:49;;;;;;;2.67;1.33;;;7.70;99.90;;;;;;4972076;28;20046;-87
2023/01/15 01:08:16;;;;;;;3.53;1.67;;;7.70;99.90;;;;;;5073705;28;20431;-86
2023/01/15 01:10:42;;;;;;;7.15;1.73;;;7.70;99.90;;;;;;4955459;28;20031;-86
2023/01/15 01:13:07;;;;;;;2.55;1.48;;;7.70;99.90;;;;;;4971801;28;20041;-86
2023/01/15 01:15:34;;;;;;;2.05;1.27;;;7.70;99.90;;;;;;4955948;28;20501;-86
2023/01/15 01:18:00;;;;;;;2.70;1.45;;;7.70;99.90;;;;;;4972130;28;20513;-86
2023/01/15 01:20:26;;;;;;;1.90;1.23;;;7.70;99.90;;;;;;4955850;28;20034;-86
2023/01/15 01:22:52;;;;;;;2.03;1.20;;;7.70;99.90;;;;;;4972546;28;20057;-86
2023/01/15 01:25:27;;;;;;;2.60;1.35;;;7.70;99.90;;;;;;4956209;28;20035;-86
2023/01/15 01:27:53;;;;;;;8.57;2.00;;;7.70;99.90;;;;;;4972149;28;20088;-87
2023/01/15 01:30:19;;;;;;;1.88;1.35;;;7.70;99.90;;;;;;4956101;28;20498;-86
2023/01/15 01:32:45;;;;;;;3.03;1.80;;;7.70;99.90;;;;;;4972283;28;20053;-86
2023/01/15 01:35:11;;;;;;;2.63;1.30;;;7.70;99.90;;;;;;4954794;28;20035;-86
2023/01/15 01:37:37;;;;;;;2.13;1.40;;;7.70;99.90;;;;;;4955843;28;20088;-86
2023/01/15 01:40:03;;;;;;;2.95;1.40;;;7.80;99.90;;;;;;4955771;28;20023;-87
2023/01/15 01:42:29;;;;;;;2.08;1.45;;;7.70;99.90;;;;;;4956005;28;20031;-86
2023/01/15 01:45:01;;;;;;;2.58;1.08;;;7.70;99.90;;;;;;4956020;28;20664;-86
2023/01/15 01:47:29;;;;;;;1.58;0.98;;;7.70;99.90;;;;;;4955986;28;20035;-86
2023/01/15 01:50:10;;;;;;;3.15;1.35;;;7.80;99.90;;;;;;4955591;28;20520;-86
2023/01/15 01:52:44;;;;;;;1.65;1.10;;;7.70;99.90;;;;;;4955308;28;20410;-86
2023/01/15 01:55:12;;;;;;;2.83;1.30;;;7.70;99.90;;;;;;4971447;28;20039;-86
2023/01/15 01:57:39;;;;;;;3.42;1.50;;;7.80;99.90;;;;;;4955459;28;20498;-86
2023/01/15 02:00:06;;;;;;;2.40;1.50;;;7.80;99.90;;;;;;4955776;28;20054;-86
2023/01/15 02:02:41;;;;;;;2.05;1.00;;;7.80;99.90;;;;;;4971560;28;20035;-86
2023/01/15 02:05:08;;;;;;;5.72;1.25;;;7.70;99.90;;;;;;4955700;28;20027;-86
2023/01/15 02:07:34;;;;;;;1.73;1.20;;;7.80;99.90;;;;;;5073370;28;20031;-86
2023/01/15 02:10:00;;;;;;;2.13;1.20;;;7.80;99.90;;;;;;4971318;28;20031;-86
2023/01/15 02:12:37;;;;;;;2.30;1.33;;;7.80;99.90;;;;;;4955671;28;20041;-86
2023/01/15 02:15:09;;;;;;;2.42;1.45;;;7.80;99.90;;;;;;4955919;28;20046;-86
2023/01/15 02:17:41;;;;;;;1.20;1.10;;;7.80;99.90;;;;;;4955306;28;20037;-87
2023/01/15 02:20:42;;;;;;;3.22;1.60;;;7.80;99.90;;;;;;4955506;28;20053;-86
2023/01/15 02:23:22;;;;;;;1.70;1.15;;;7.80;99.90;;;;;;4977921;28;20524;-87
2023/01/15 02:26:01;;;;;;;1.15;0.90;;;7.80;99.90;;;;;;4971471;28;20043;-86
2023/01/15 02:28:34;;;;;;;2.42;1.40;;;7.80;99.90;;;;;;4955546;28;20512;-87
2023/01/15 02:31:16;;;;;;;5.07;1.42;;;7.80;99.90;;;;;;4955498;28;20035;-86
2023/01/15 02:33:57;;;;;;;1.98;1.20;;;7.80;99.90;;;;;;5072989;28;20034;-86
2023/01/15 02:36:25;;;;;;;;;;;7.80;99.90;;;;;;4955515;28;20669;-86
2023/01/15 02:38:55;;;;;;;2.00;1.30;;;7.80;99.90;;;;;;5054812;28;19962;-87
2023/01/15 02:41:31;;;;;;;2.35;1.30;;;7.80;99.90;;;;;;4954890;28;20117;-86
2023/01/15 02:44:01;;;;;;;2.60;1.60;;;7.80;99.90;;;;;;4954409;28;20503;-86
2023/01/15 02:46:32;;;;;;;2.97;1.48;;;7.90;99.90;;;;;;4953544;28;20612;-86
2023/01/15 02:49:06;;;;;;;3.35;1.70;;;7.90;99.90;;;;;;4954766;28;20027;-86
2023/01/15 02:51:58;;;;;;;4.20;1.50;;;7.90;99.90;;;;;;4954702;28;20038;-87
2023/01/15 02:54:30;;;;;;;2.00;1.38;;;7.90;99.90;;;;;;4970526;28;20031;-85
2023/01/15 02:56:59;;;;;;;2.40;1.42;;;7.90;99.90;;;;;;4954418;28;20389;-86
2023/01/15 02:59:35;;;;;;;3.97;1.52;;;7.90;99.90;;;;;;4954192;28;20109;-86
2023/01/15 03:02:07;;;;;;;3.53;1.80;;;7.90;99.90;;;;;;4954210;28;20027;-86
2023/01/15 03:04:40;;;;;;;1.92;1.70;;;7.90;99.90;;;;;;4954451;28;20108;-86
2023/01/15 03:07:20;;;;;;;2.97;1.75;;;7.90;99.90;;;;;;4954522;28;20034;-86
2023/01/15 03:09:48;;;;;;;5.95;2.75;;;7.90;99.90;;;;;;5071249;28;20127;-87
2023/01/15 03:12:29;;;;;;;4.85;3.38;;;7.80;99.90;;;;;;4953687;28;20110;-86
2023/01/15 03:15:01;;;;;;;3.05;2.45;;;7.90;99.90;;;;;;4970011;28;20121;-86
2023/01/15 03:17:34;;;;;;;4.28;3.00;;;7.90;99.90;;;;;;4970043;28;20680;-86
2023/01/15 03:20:10;;;;;;;4.38;3.40;;;7.90;99.90;;;;;;4970206;28;20031;-86
2023/01/15 03:22:40;;;;;;;4.13;3.38;;;7.90;99.90;;;;;;4970242;28;20077;-86
2023/01/15 03:25:29;;;;;;;3.38;2.85;;;7.90;99.90;;;;;;4954509;28;20136;-86
2023/01/15 03:28:00;;;;;;;4.18;3.13;;;7.90;99.90;;;;;;4954656;28;20073;-86
2023/01/15 03:30:27;;;;;;;4.13;3.33;;;7.90;99.90;;;;;;4953964;28;20031;-86
2023/01/15 03:32:54;;;;;;;3.50;2.50;;;7.90;99.90;;;;;;5070983;28;20031;-86
2023/01/15 03:35:59;;;;;;;4.57;2.25;;;7.90;99.90;;;;;;4953522;28;20691;-86
2023/01/15 03:38:51;;;;;;;1.87;1.70;;;7.90;99.90;;;;;;5015664;28;20112;-86
2023/01/15 03:41:47;;;;;;;1.73;1.30;;;7.90;99.90;;;;;;4986282;28;20055;-87
2023/01/15 03:44:26;;;;;;;2.30;1.40;;;7.90;99.90;;;;;;4954310;28;20391;-86
2023/01/15 03:46:54;;;;;;;2.45;1.10;;;7.90;99.90;;;;;;4969872;28;20803;-86
2023/01/15 03:49:44;;;;;;;1.48;1.02;;;7.90;99.90;;;;;;4953874;28;20117;-86
2023/01/15 03:52:53;;;;;;;1.58;0.90;;;7.90;99.90;;;;;;4955430;28;20133;-86
2023/01/15 03:55:27;;;;;;;0.68;0.63;;;7.90;99.90;;;;;;4978184;28;20038;-86
2023/01/15 03:58:12;;;;;;;2.40;0.70;;;7.80;99.90;;;;;;4969857;28;20034;-86
2023/01/15 04:00:47;;;;;;;1.23;0.90;;;7.80;99.90;;;;;;4953626;28;20026;-86
2023/01/15 04:03:16;;;;;;;1.52;0.93;;;7.80;99.90;;;;;;4953892;28;20452;-86
2023/01/15 04:05:43;;;;;;;0.55;0.40;;;7.70;99.90;;;;;;4953470;28;20027;-85
2023/01/15 04:08:11;;;;;;;0.68;0.40;;;7.50;99.90;;;;;;4953533;28;20023;-86
2023/01/15 04:10:37;;;;;;;0.30;0.30;;;7.10;99.90;;;;;;4953571;28;20129;-87
2023/01/15 04:13:05;;;;;;;0.30;0.20;;;6.70;99.90;;;;;;4954027;28;20482;-86
2023/01/15 04:15:31;;;;;;;0.45;0.40;;;6.50;99.90;;;;;;4953284;28;20031;-86
2023/01/15 04:17:56;;;;;;;0.38;0.38;;;6.40;99.90;;;;;;4953088;28;20035;-86
2023/01/15 04:20:23;;;;;;;0.40;0.40;;;6.30;99.90;;;;;;4953173;28;20030;-86
2023/01/15 04:22:49;;;;;;;0.40;0.40;;;6.20;99.90;;;;;;4953423;28;20027;-86
2023/01/15 04:25:15;;;;;;;0.32;0.32;;;6.10;99.90;;;;;;4953089;28;20569;-86
2023/01/15 04:27:43;;;;;;;0.35;0.35;;;6.00;99.90;;;;;;4953227;28;20482;-87
2023/01/15 04:30:10;;;;;;;0.95;0.30;;;5.90;99.90;;;;;;4953291;28;20042;-86
2023/01/15 04:32:36;;;;;;;0.60;0.50;;;5.90;99.90;;;;;;5070750;28;20520;-86
2023/01/15 04:35:01;;;;;;;0.47;0.47;;;5.90;99.90;;;;;;4969137;28;20031;-86
2023/01/15 04:37:27;;;;;;;0.50;0.40;;;5.80;99.90;;;;;;4952780;28;20060;-86
2023/01/15 04:39:53;;;;;;;0.30;0.30;;;5.80;99.90;;;;;;4952577;28;20027;-86
2023/01/15 04:45:03;;;;;;;0.70;0.65;;;5.80;99.90;;;;;;4969524;28;20110;-86
2023/01/15 04:47:29;;;;;;;0.40;0.40;;;5.70;99.90;;;;;;5071184;28;20129;-86
2023/01/15 04:49:55;;;;;;;0.50;0.40;;;5.70;99.90;;;;;;4953327;28;20027;-86
2023/01/15 04:52:21;;;;;;;0.55;0.45;;;5.70;99.90;;;;;;4953287;28;20031;-86
2023/01/15 04:54:46;;;;;;;0.40;0.40;;;5.70;99.90;;;;;;4953489;28;20035;-86
2023/01/15 04:57:12;;;;;;;1.75;0.60;;;5.70;99.90;;;;;;4953399;28;20367;-86
2023/01/15 04:59:38;;;;;;;0.50;0.50;;;5.60;99.90;;;;;;4953145;28;20478;-87
2023/01/15 05:02:03;;;;;;;3.33;0.40;;;5.60;99.90;;;;;;4953408;28;20033;-86
2023/01/15 05:04:29;;;;;;;0.40;0.40;;;5.60;99.90;;;;;;4953110;28;20066;-86
2023/01/15 05:06:55;;;;;;;0.43;0.43;;;5.50;99.90;;;;;;4952674;28;20031;-86
2023/01/15 05:09:21;;;;;;;0.85;0.60;;;5.60;99.90;;;;;;4954599;28;20092;-86
2023/01/15 05:11:46;;;;;;;0.80;0.38;;;5.50;99.90;;;;;;4973682;28;20424;-86
2023/01/15 05:14:12;;;;;;;0.40;0.40;;;5.40;99.90;;;;;;4956209;28;20039;-86
2023/01/15 05:16:38;;;;;;;1.38;0.40;;;5.30;99.90;;;;;;4972532;28;20039;-86
2023/01/15 05:19:06;;;;;;;0.98;0.50;;;5.20;99.90;;;;;;4956400;28;20394;-86
2023/01/15 05:21:35;;;;;;;0.50;0.40;;;5.20;99.90;;;;;;4956107;28;20026;-86
2023/01/15 05:24:03;;;;;;;0.77;0.60;;;5.20;99.90;;;;;;4956127;28;20076;-86
2023/01/15 05:26:32;;;;;;;0.90;0.80;;;5.10;99.90;;;;;;4955971;28;20062;-86
2023/01/15 05:28:59;;;;;;;0.93;0.80;;;5.10;99.90;;;;;;4955230;28;20445;-85
2023/01/15 05:31:25;;;;;;;1.70;1.00;;;5.00;99.90;;;;;;4955710;28;20038;-86
2023/01/15 05:33:53;;;;;;;1.08;0.90;;;4.90;99.90;;;;;;4972025;28;20600;-86
2023/01/15 05:36:24;;;;;;;1.05;0.95;;;4.80;99.90;;;;;;4972030;28;20076;-86
2023/01/15 05:38:49;;;;;;;2.30;0.98;;;4.80;99.90;;;;;;4955790;28;20058;-86
2023/01/15 05:44:04;;;;;;;3.13;1.17;;;4.70;99.90;;;;;;4972149;28;20165;-86
2023/01/15 05:46:31;;;;;;;2.85;0.90;;;4.70;99.90;;;;;;5073769;28;20876;-85
2023/01/15 05:49:02;;;;;;;1.15;1.00;;;4.70;99.90;;;;;;4972079;28;20034;-86
2023/01/15 05:51:28;;;;;;;1.10;0.90;;;4.70;99.90;;;;;;4955718;28;20045;-86
2023/01/15 05:53:56;;;;;;;2.72;1.20;;;4.60;99.90;;;;;;4955574;28;20042;-86
2023/01/15 05:56:21;;;;;;;3.15;1.27;;;4.60;99.90;;;;;;4955364;28;20030;-86
2023/01/15 05:58:47;;;;;;;2.17;1.30;;;4.60;99.90;;;;;;4955165;28;20058;-86
2023/01/15 06:01:13;;;;;;;1.85;1.25;;;4.60;99.90;;;;;;4971510;28;20101;-86
2023/01/15 06:03:40;;;;;;;2.90;1.70;;;4.60;99.90;;;;;;4955258;28;20038;-86
2023/01/15 06:06:11;;;;;;;4.95;1.90;;;4.60;99.90;;;;;;4955488;28;20035;-86
2023/01/15 06:08:37;;;;;;;3.55;2.05;;;4.50;99.90;;;;;;4955492;28;20130;-86
2023/01/15 06:11:02;;;;;;;5.90;2.85;;;4.60;99.90;;;;;;4955430;28;20129;-86
2023/01/15 06:13:28;;;;;;;4.40;2.67;;;4.60;99.90;;;;;;4955059;28;20486;-86
2023/01/15 06:15:54;;;;;;;6.78;3.38;;;4.50;99.90;;;;;;4954923;28;20038;-86
2023/01/15 06:18:22;;;;;;;9.73;3.58;;;4.60;99.90;;;;;;4955194;28;20065;-86
2023/01/15 06:20:48;;;;;;;5.90;3.53;;;4.60;99.90;;;;;;4954954;28;20386;-86
2023/01/15 06:23:16;;;;;;;7.15;4.55;;;4.60;99.90;;;;;;4954769;28;20031;-86
2023/01/15 06:25:41;;;;;;;9.70;5.82;;;4.60;99.90;;;;;;4954559;28;20042;-86
2023/01/15 06:28:08;;;;;;;9.32;4.88;;;4.60;99.90;;;;;;4954717;28;20483;-86
2023/01/15 06:30:36;;;;;;;7.70;4.28;;;4.60;99.90;;;;;;4971100;28;20027;-86
2023/01/15 06:33:01;;;;;;;9.60;4.97;;;4.60;99.90;;;;;;4955024;28;20034;-86
2023/01/15 06:35:52;;;;;;;7.78;4.43;;;4.60;99.90;;;;;;4955547;28;20031;-86
2023/01/15 06:38:18;;;;;;;10.68;5.35;;;4.60;99.90;;;;;;4971276;28;20042;-86
2023/01/15 06:40:44;;;;;;;8.50;5.32;;;4.60;99.90;;;;;;4972453;28;20027;-86
2023/01/15 06:48:39;;;;;;;4.38;3.28;;;4.60;99.90;;;;;;4971087;28;20030;-86
2023/01/15 06:51:05;;;;;;;5.82;3.92;;;4.50;99.90;;;;;;4970828;28;20053;-86
2023/01/15 06:53:30;;;;;;;6.65;4.07;;;4.50;99.90;;;;;;4970635;28;20085;-86
2023/01/15 06:55:56;;;;;;;4.47;3.28;;;4.50;99.90;;;;;;4970806;28;20050;-86
2023/01/15 06:58:22;;;;;;;5.05;3.55;;;4.50;99.90;;;;;;4954582;28;20023;-86
2023/01/15 07:01:05;;;;;;;7.20;4.35;;;4.50;99.90;;;;;;4954568;28;20085;-86
2023/01/15 07:03:31;;;;;;;6.28;4.22;;;4.40;99.90;;;;;;4954049;28;20049;-86
2023/01/15 07:05:56;;;;;;;7.38;4.43;;;4.40;99.90;;;;;;4955221;28;20134;-86
2023/01/15 07:08:22;;;;;;;5.60;3.63;;;4.40;99.90;;;;;;4970523;28;20023;-86
2023/01/15 07:10:47;;;;;;;4.50;3.35;;;4.40;99.90;;;;;;4970802;28;20039;-85
2023/01/15 07:13:13;;;;;;;4.07;2.90;;;4.30;99.90;;;;;;4954707;28;20066;-86
2023/01/15 07:15:39;;;;;;;4.03;3.00;;;4.30;99.90;;;;;;4954428;28;20037;-85
2023/01/15 07:18:05;;;;;;;6.28;3.25;;;4.30;99.90;;;;;;4954809;28;20046;-88
2023/01/15 07:20:30;;;;;;;5.43;3.38;;;4.20;99.90;;;;;;4955266;28;20363;-89
2023/01/15 07:22:56;;;;;;;3.90;2.72;;;4.20;99.90;;;;;;4955530;28;20114;-88
2023/01/15 07:25:22;;;;;;;4.20;2.90;;;4.20;99.90;;;;;;4955113;28;20077;-89
2023/01/15 07:27:47;;;;;;;5.15;3.50;;;4.20;99.90;;;;;;4955479;28;20084;-88
2023/01/15 07:30:13;;;;;;;3.97;3.10;;;4.20;99.90;;;;;;4954865;28;20111;-89
2023/01/15 07:32:40;;;;;;;6.63;4.03;;;4.10;99.90;;;;;;4954203;28;20550;-88
2023/01/15 07:35:06;;;;;;;6.57;3.50;;;4.10;99.90;;;;;;5072281;28;20034;-89
2023/01/15 07:37:32;;;;;;;4.95;3.15;;;4.10;99.90;;;;;;4970871;28;20447;-89
2023/01/15 07:39:57;;;;;;;4.55;3.58;;;4.00;99.90;;;;;;4970912;28;20031;-88
2023/01/15 07:50:38;;;;;;;4.97;3.15;;;3.80;99.90;;;;;;4970248;28;20851;-87
2023/01/15 07:53:03;;;;;;;3.83;2.63;;;3.80;99.90;;;;;;4954086;28;20117;-89
2023/01/15 07:55:29;;;;;;;2.28;1.75;;;3.80;99.90;;;;;;4954618;28;20081;-88
2023/01/15 07:57:55;;;;;;;2.30;1.80;;;3.70;99.90;;;;;;4970302;28;20410;-87
2023/01/15 08:00:23;;;;;;;2.83;1.60;;;3.60;99.90;;;;;;4954090;28;20114;-88
2023/01/15 08:02:49;;;;;;;2.05;1.70;;;3.60;99.90;;;;;;4970519;28;20031;-88
2023/01/15 08:05:16;;;;;;;6.00;1.88;;;3.60;99.90;;;;;;5071746;28;20418;-87
2023/01/15 08:07:43;;;;;;;4.40;1.67;;;3.60;99.90;;;;;;4954697;28;20026;-87
2023/01/15 08:10:11;;;;;;;2.13;1.70;;;3.60;99.90;;;;;;4954363;28;20031;-88
2023/01/15 08:15:21;;;;;;;3.97;2.17;;;3.50;99.90;;;;;;4970452;28;20044;-87
2023/01/15 08:18:03;;;;;;;3.55;2.22;;;3.50;99.90;;;;;;4954382;28;20043;-88
2023/01/15 08:20:29;;;;;;;1.98;1.73;;;3.50;99.90;;;;;;4953756;28;20087;-88
2023/01/15 08:22:55;;;;;;;5.60;2.28;;;3.50;99.90;;;;;;4953784;28;20134;-88
2023/01/15 08:25:23;;;;;;;9.80;5.57;;;3.40;99.90;;;;;;4953952;28;20045;-88
2023/01/15 08:27:49;;;;;;;1.90;1.55;;;3.30;99.90;;;;;;4970171;28;20126;-87
2023/01/15 08:30:22;;;;;;;3.90;2.30;;;3.30;99.90;;;;;;4970463;28;20054;-87
2023/01/15 08:32:47;;;;;;;1.52;0.90;;;3.30;99.90;;;;;;4970085;28;20031;-88
2023/01/15 08:35:13;;;;;;;1.88;1.45;;;3.30;99.90;;;;;;4954072;28;20089;-88
2023/01/15 08:37:40;;;;;;;7.63;2.10;;;3.30;99.90;;;;;;4953779;28;20031;-88
2023/01/15 08:40:07;;;;;;;1.15;0.90;;;3.30;99.90;;;;;;4953830;28;20057;-88
2023/01/15 08:42:33;;;;;;;5.85;2.60;;;3.20;99.90;;;;;;4954262;28;20035;-88
2023/01/15 08:44:59;;;;;;;1.60;1.00;;;3.30;99.90;;;;;;4956413;28;20042;-88
2023/01/15 08:47:24;;;;;;;4.05;1.65;;;3.30;99.90;;;;;;4957779;28;20047;-94
2023/01/15 08:49:50;;;;;;;4.30;1.17;;;3.30;99.90;;;;;;4959941;28;20031;-95
2023/01/15 08:52:16;;;;;;;4.28;1.25;;;3.30;99.90;;;;;;4959695;28;20043;-94
2023/01/15 08:54:42;;;;;;;6.57;2.47;;;3.30;99.90;;;;;;4960109;28;20494;-94
2023/01/15 08:57:43;;;;;;;5.55;2.80;;;3.30;99.90;;;;;;4975939;28;20074;-94
2023/01/15 09:00:09;;;;;;;0.90;0.80;;;3.30;99.90;;;;;;4959786;28;20385;-95
2023/01/15 09:02:35;;;;;;;3.13;1.60;;;3.20;99.90;;;;;;4959839;28;20027;-93
2023/01/15 09:05:01;;;;;;;2.25;1.30;;;3.30;99.90;;;;;;4960627;28;20038;-94
2023/01/15 09:07:26;;;;;;;1.92;1.17;;;3.20;99.90;;;;;;4975908;28;20039;-93
2023/01/15 09:09:53;;;;;;;2.20;1.45;;;3.20;99.90;;;;;;4960123;28;20034;-95
2023/01/15 09:12:23;;;;;;;1.13;0.70;;;3.20;99.90;;;;;;4975637;28;20035;-94
2023/01/15 09:14:49;;;;;;;2.10;1.40;;;3.30;99.90;;;;;;4959501;28;20516;-95
2023/01/15 09:17:15;;;;;;;2.92;1.85;;;3.30;99.90;;;;;;4959672;28;20145;-93
2023/01/15 09:19:41;;;;;;;4.18;2.67;;;3.30;99.90;;;;;;4975548;28;20015;-93
2023/01/15 09:22:06;;;;;;;7.40;4.63;;;3.30;99.90;;;;;;4959242;28;20061;-94
2023/01/15 09:24:32;;;;;;;5.18;3.40;;;3.30;99.90;;;;;;4959250;28;20027;-94
2023/01/15 09:26:58;;;;;;;16.42;9.90;;;3.30;99.90;;;;;;4975229;28;20481;-94
2023/01/15 09:29:23;;;;;;;6.07;3.92;;;3.30;99.90;;;;;;4959072;28;20122;-94
2023/01/15 09:31:49;;;;;;;2.88;2.35;;;3.20;99.90;;;;;;4958941;28;20038;-94
2023/01/15 09:34:15;;;;;;;1.88;1.63;;;3.20;99.90;;;;;;4958960;28;20038;-94
2023/01/15 09:36:41;;;;;;;2.63;1.95;;;3.20;99.90;;;;;;4958846;28;20057;-94
2023/01/15 09:39:06;;;;;;;3.10;1.50;;;3.20;99.90;;;;;;4974856;28;20084;-94
2023/01/15 09:44:55;;;;;;;2.15;1.80;;;3.10;99.90;;;;;;4974872;28;20038;-93
2023/01/15 09:47:33;;;;;;;2.35;2.08;;;3.10;99.90;;;;;;4958400;28;20133;-93
2023/01/15 09:50:27;;;;;;;5.88;2.28;;;3.10;99.90;;;;;;4958492;28;20497;-95
2023/01/15 09:53:18;;;;;;;4.65;3.25;;;3.10;99.90;;;;;;4958600;28;20041;-94
2023/01/15 09:55:47;;;;;;;7.63;3.63;;;3.10;99.90;;;;;;4958087;28;20045;-92
2023/01/15 09:58:17;;;;;;;2.63;1.92;;;3.10;99.90;;;;;;4958736;28;20036;-93
2023/01/15 10:00:46;;;;;;;3.63;2.20;;;3.10;99.90;;;;;;4958791;28;20057;-94
2023/01/15 10:03:12;;;;;;;6.05;2.60;;;3.10;99.90;;;;;;4958050;28;20031;-94
2023/01/15 10:05:46;;;;;;;4.40;2.22;;;3.10;99.90;;;;;;4958085;28;20378;-94
2023/01/15 10:08:16;;;;;;;3.05;2.28;;;3.00;99.90;;;;;;4958327;28;20045;-93
2023/01/15 10:10:47;;;;;;;3.15;2.28;;;3.00;99.90;;;;;;4957495;28;20070;-94
2023/01/15 10:13:50;;;;;;;9.30;3.50;;;3.00;99.90;;;;;;4957649;28;20034;-94
2023/01/15 10:16:30;;;;;;;6.13;4.13;;;3.00;99.90;;;;;;4960039;28;20043;-93
2023/01/15 10:18:57;;;;;;;3.78;2.92;;;3.00;99.90;;;;;;5076069;28;20062;-94
2023/01/15 10:21:46;;;;;;;7.32;3.60;;;3.00;99.90;;;;;;4958365;28;20023;-93
2023/01/15 10:24:36;;;;;;;2.38;2.00;;;3.00;99.90;;;;;;4958921;28;20030;-93
2023/01/15 10:27:23;;;;;;;5.28;4.10;;;3.00;99.90;;;;;;4974536;28;20035;-93
2023/01/15 10:30:32;;;;;;;3.72;2.60;;;3.10;99.90;;;;;;4958086;28;20039;-94
2023/01/15 10:33:11;;;;;;;6.30;3.75;;;3.00;99.90;;;;;;4958064;28;20125;-95
2023/01/15 10:35:57;;;;;;;3.92;3.00;;;3.10;99.90;;;;;;4958378;28;20065;-93
2023/01/15 10:38:53;;;;;;;5.63;2.58;;;3.10;99.90;;;;;;4958048;28;20041;-94
2023/01/15 10:41:29;;;;;;;4.47;2.40;;;3.00;99.90;;;;;;4978681;28;20039;-94
2023/01/15 10:44:15;;;;;;;10.50;2.92;;;3.00;99.90;;;;;;4958088;28;20474;-93
2023/01/15 10:46:48;;;;;;;2.97;2.40;;;3.00;99.90;;;;;;4973570;28;20035;-93
2023/01/15 10:49:16;;;;;;;2.88;2.00;;;3.00;99.90;;;;;;4973686;28;20031;-94
2023/01/15 10:51:45;;;;;;;3.67;2.30;;;3.00;99.90;;;;;;4957735;28;20052;-94
2023/01/15 10:54:26;;;;;;;6.53;2.78;;;3.00;99.90;;;;;;4957835;28;20031;-94
2023/01/15 10:57:00;;;;;;;5.25;3.17;;;3.00;99.90;;;;;;4957350;28;20035;-93
2023/01/15 10:59:26;;;;;;;4.20;2.60;;;3.00;99.90;;;;;;4957187;28;20041;-95
2023/01/15 11:01:53;;;;;;;4.03;2.45;;;3.00;99.90;;;;;;4957774;28;20445;-93
2023/01/15 11:04:20;;;;;;;5.25;3.70;;;2.90;99.90;;;;;;4957671;28;20026;-94
2023/01/15 11:06:46;;;;;;;5.18;3.17;;;3.00;99.90;;;;;;4956865;28;20035;-94
2023/01/15 11:09:20;;;;;;;4.82;2.50;;;3.00;99.90;;;;;;4957916;28;20054;-95
2023/01/15 11:20:33;;;;;;;4.57;1.90;;;2.80;99.90;;;;;;4973162;28;20033;-94
2023/01/15 11:23:08;;;;;;;1.83;0.77;;;2.40;99.90;;;;;;4956821;28;20039;-94
2023/01/15 11:25:34;;;;;;;6.70;3.00;;;1.80;99.90;;;;;;4956250;28;20483;-94
2023/01/15 11:28:03;;;;;;;17.33;6.85;;;1.30;99.90;;;;;;4956005;28;20035;-94
2023/01/15 11:30:32;;;;;;;18.73;7.70;;;1.20;99.90;;;;;;4955878;28;20041;-93
2023/01/15 11:33:02;;;;;;;20.63;7.03;;;1.30;99.90;;;;;;4972536;28;20035;-94
2023/01/15 11:35:29;;;;;;;3.10;1.73;;;1.40;99.90;;;;;;4972503;28;20039;-95
2023/01/15 11:38:06;;;;;;;13.82;6.40;;;1.50;99.90;;;;;;4956603;28;20038;-94
2023/01/15 11:40:32;;;;;;;6.18;3.05;;;1.50;99.90;;;;;;5057173;28;20027;-94
2023/01/15 11:51:41;;;;;;;5.00;3.30;;;1.30;99.90;;;;;;4972501;28;20034;-94
2023/01/15 11:54:10;;;;;;;6.13;3.45;;;1.30;99.90;;;;;;4956426;28;20383;-93
2023/01/15 11:56:40;;;;;;;8.30;4.45;;;1.40;99.90;;;;;;4956468;28;20035;-93
2023/01/15 11:59:11;;;;;;;9.47;4.47;;;1.50;99.90;;;;;;4956044;28;20038;-93
2023/01/15 12:01:56;;;;;;;12.13;5.43;;;1.50;99.90;;;;;;4956093;28;20026;-93
2023/01/15 12:04:28;;;;;;;13.18;6.55;;;1.60;99.90;;;;;;4956062;28;20027;-93
2023/01/15 12:06:53;;;;;;;21.63;10.40;;;1.60;99.90;;;;;;4972123;28;20031;-93
2023/01/15 12:09:34;;;;;;;16.73;8.20;;;1.60;99.90;;;;;;4955955;28;20046;-93
2023/01/15 12:12:26;;;;;;;14.20;5.80;;;1.50;99.90;;;;;;4955803;28;20048;-93
2023/01/15 12:15:17;;;;;;;19.90;8.02;;;1.40;99.90;;;;;;5056673;28;20398;-94
2023/01/15 12:17:51;;;;;;;10.35;5.45;;;1.30;99.90;;;;;;4956766;28;20039;-94
2023/01/15 12:20:26;;;;;;;14.25;6.57;;;1.20;99.90;;;;;;4959585;28;20512;-94
2023/01/15 12:22:55;;;;;;;23.00;9.95;;;1.20;99.90;;;;;;4959540;28;20034;-94
2023/01/15 12:25:38;;;;;;;18.30;9.05;;;1.20;99.90;;;;;;4959284;28;20031;-95
2023/01/15 12:28:24;;;;;;;18.40;8.43;;;1.10;99.90;;;;;;4958964;28;20031;-94
2023/01/15 12:30:59;;;;;;;10.25;4.82;;;0.90;99.90;;;;;;4959156;28;20038;-94
2023/01/15 12:33:34;;;;;;;12.00;6.68;;;0.90;99.90;;;;;;4975319;28;20031;-94
2023/01/15 12:36:07;;;;;;;9.43;4.95;;;1.00;99.90;;;;;;4959313;28;20042;-94
2023/01/15 12:38:49;;;;;;;9.50;5.50;;;1.00;99.90;;;;;;4959129;28;20385;-94
2023/01/15 12:47:43;;;;;;;19.95;11.73;;;1.20;99.90;;;;;;4975507;28;20043;-94
2023/01/15 12:50:35;;;;;;;18.73;10.65;;;1.20;99.90;;;;;;4959739;28;20097;-94
2023/01/15 12:53:19;;;;;;;18.58;10.40;;;1.20;99.90;;;;;;4948831;28;20039;-94
2023/01/15 12:56:00;;;;;;;40.78;19.40;;;1.20;99.90;;;;;;4959239;28;20039;-95
2023/01/15 12:58:31;;;;;;;26.38;12.82;;;1.30;99.90;;;;;;4975249;28;20081;-94
2023/01/15 13:01:09;;;;;;;13.45;8.35;;;1.40;99.90;;;;;;4959278;28;20371;-94
2023/01/15 13:04:09;;;;;;;15.68;9.68;;;1.60;99.90;;;;;;4975167;28;20092;-94
2023/01/15 13:06:40;;;;;;;14.93;7.72;;;1.80;99.90;;;;;;4958639;28;20034;-94
2023/01/15 13:09:24;;;;;;;17.20;7.35;;;1.90;99.90;;;;;;4959120;28;20041;-94
2023/01/15 13:11:51;;;;;;;11.30;6.07;;;1.90;99.90;;;;;;4958623;28;20066;-94
2023/01/15 13:14:18;;;;;;;18.85;8.98;;;2.00;99.90;;;;;;4958853;28;20100;-94
2023/01/15 13:16:44;;;;;;;12.88;6.70;;;2.10;99.90;;;;;;4974829;28;20073;-93
2023/01/15 13:19:35;;;;;;;10.60;6.05;;;2.10;99.90;;;;;;4958922;28;20023;-95
2023/01/15 13:22:05;;;;;;;;;;;2.20;99.90;;;;;;4959412;28;20080;-94
2023/01/15 13:24:40;;;;;;;8.85;4.55;;;2.30;99.90;;;;;;5059749;28;19917;-93
2023/01/15 13:27:27;;;;;;;11.35;5.10;;;2.30;99.90;;;;;;4958846;28;20120;-94
2023/01/15 13:30:16;;;;;;;14.80;4.47;;;2.30;99.90;;;;;;4957334;28;20027;-93
2023/01/15 13:32:48;;;;;;;12.52;4.90;;;2.40;99.90;;;;;;4959417;28;20126;-94
2023/01/15 13:35:31;;;;;;;8.23;4.30;;;2.50;99.90;;;;;;4959132;28;20031;-96
2023/01/15 13:38:01;;;;;;;14.05;4.47;;;2.50;99.90;;;;;;4959069;28;20501;-93
2023/01/15 13:40:35;;;;;;;9.75;3.30;;;2.50;99.90;;;;;;4959005;28;20035;-93
2023/01/15 13:43:04;;;;;;;8.43;4.10;;;2.60;99.90;;;;;;4974508;28;20062;-93
2023/01/15 13:45:37;;;;;;;4.68;2.83;;;2.70;99.90;;;;;;4958249;28;20672;-93
2023/01/15 13:48:11;;;;;;;7.80;2.45;;;2.80;99.90;;;;;;4974423;28;20031;-94
2023/01/15 13:50:41;;;;;;;6.50;2.35;;;2.80;99.90;;;;;;5059493;28;20050;-92
2023/01/15 13:53:37;;;;;;;9.18;2.80;;;2.90;99.90;;;;;;4958893;28;20494;-93
2023/01/15 13:56:13;;;;;;;7.18;2.03;;;2.90;99.90;;;;;;4958767;28;20070;-93
2023/01/15 13:58:52;;;;;;;16.75;3.13;;;2.90;99.90;;;;;;4958677;28;20035;-93
2023/01/15 14:01:20;;;;;;;14.20;2.35;;;2.80;99.90;;;;;;4974896;28;20087;-93
2023/01/15 14:04:05;;;;;;;16.02;2.58;;;2.90;99.90;;;;;;4958549;28;20242;-91
2023/01/15 14:06:45;;;;;;;10.75;1.67;;;2.90;99.90;;;;;;4958829;28;20035;-93
2023/01/15 14:09:13;;;;;;;19.75;3.72;;;3.00;99.90;;;;;;4958311;28;20022;-92
2023/01/15 14:11:49;;;;;;;18.35;4.93;;;3.10;99.90;;;;;;4958306;28;20053;-92